Time;durP1;ratioP1;P1;durP2;ratioP2;P2;SDS_P1;SDS_P2;PMS_P1;PMS_P2;Temp;Humidity;BMP_temperature;BMP_pressure;BME280_temperature;BME280_humidity;BME280_pressure;Samples;Min_cycle;Max_cycle;Signal;HPM_P1;HPM_P2
2022/03/22 00:00:16;;;;;;;309.75;292.33;;;;;;;8.51;32.91;103089.13;696791;28;23486;-65
2022/03/22 00:00:38;;;;;;;308.00;291.98;;;;;;;8.53;32.94;103088.06;697064;28;22380;-65
2022/03/22 00:01:00;;;;;;;327.25;309.77;;;;;;;8.50;33.13;103088.28;695279;28;69162;-65
2022/03/22 00:01:21;;;;;;;284.42;268.45;;;;;;;8.48;33.13;103091.06;696399;28;23514;-65
2022/03/22 00:01:43;;;;;;;245.63;231.07;;;;;;;8.47;33.09;103085.78;695145;28;22397;-65
2022/03/22 00:02:05;;;;;;;257.17;241.35;;;;;;;8.47;33.04;103093.88;696807;28;22417;-65
2022/03/22 00:02:26;;;;;;;272.52;255.85;;;;;;;8.47;33.13;103094.72;694339;28;69838;-65
2022/03/22 00:02:47;;;;;;;264.80;249.23;;;;;;;8.45;33.14;103088.59;696497;28;21541;-65
2022/03/22 00:03:08;;;;;;;280.13;264.15;;;;;;;8.45;33.21;103093.97;696778;28;22380;-65
2022/03/22 00:03:30;;;;;;;310.15;292.98;;;;;;;8.44;33.22;103094.94;697006;28;22545;-65
2022/03/22 00:03:51;;;;;;;311.65;294.50;;;;;;;8.43;33.07;103090.53;695700;28;45078;-65
2022/03/22 00:04:12;;;;;;;324.63;307.02;;;;;;;8.43;33.37;103097.69;696326;28;21495;-65
2022/03/22 00:04:33;;;;;;;338.80;320.33;;;;;;;8.42;33.40;103091.47;697023;28;23464;-65
2022/03/22 00:04:54;;;;;;;293.48;276.83;;;;;;;8.41;33.20;103088.88;696939;28;22400;-65
2022/03/22 00:05:16;;;;;;;263.45;246.63;;;;;;;8.38;33.42;103091.78;696809;28;23460;-65
2022/03/22 00:05:40;;;;;;;277.48;259.88;;;;;;;8.38;33.58;103091.78;696153;28;45914;-65
2022/03/22 00:06:01;;;;;;;271.73;255.63;;;;;;;8.35;33.46;103089.28;696658;28;27526;-65
2022/03/22 00:06:22;;;;;;;248.48;234.02;;;;;;;8.36;33.42;103093.72;696675;28;22376;-65
2022/03/22 00:06:44;;;;;;;254.20;239.10;;;;;;;8.36;33.53;103096.41;696247;28;23479;-65
2022/03/22 00:07:05;;;;;;;243.85;230.10;;;;;;;8.36;33.44;103094.56;695443;28;45249;-65
2022/03/22 00:07:27;;;;;;;235.47;221.97;;;;;;;8.36;33.49;103097.28;695560;28;45263;-66
2022/03/22 00:07:48;;;;;;;253.88;238.75;;;;;;;8.36;33.40;103097.28;701236;28;45040;-65
2022/03/22 00:08:10;;;;;;;288.80;271.80;;;;;;;8.34;33.42;103092.94;701543;28;46600;-65
2022/03/22 00:08:32;;;;;;;299.40;280.55;;;;;;;8.31;33.57;103085.97;698798;28;91864;-65
2022/03/22 00:08:54;;;;;;;299.15;280.27;;;;;;;8.32;33.71;103095.75;701845;28;22371;-65
2022/03/22 00:09:15;;;;;;;306.42;287.55;;;;;;;8.31;33.54;103088.66;700541;28;46356;-65
2022/03/22 00:09:37;;;;;;;300.67;281.90;;;;;;;8.29;33.60;103099.53;697182;28;22385;-66
2022/03/22 00:09:58;;;;;;;291.33;273.42;;;;;;;8.29;33.61;103093.25;695437;28;46300;-66
2022/03/22 00:10:19;;;;;;;299.25;281.27;;;;;;;8.29;33.80;103093.25;696811;28;22354;-65
2022/03/22 00:10:40;;;;;;;293.60;276.05;;;;;;;8.28;33.77;103097.78;696599;28;22396;-65
2022/03/22 00:11:02;;;;;;;306.80;288.23;;;;;;;8.27;33.56;103092.50;696793;28;23724;-65
2022/03/22 00:11:25;;;;;;;314.88;295.95;;;;;;;8.26;33.87;103088.97;695337;28;45214;-65
2022/03/22 00:11:50;;;;;;;322.77;302.90;;;;;;;8.24;33.74;103098.09;695462;28;46719;-65
2022/03/22 00:12:11;;;;;;;314.02;295.38;;;;;;;8.24;33.81;103093.56;693499;28;115890;-65
2022/03/22 00:12:32;;;;;;;325.17;305.65;;;;;;;8.23;34.08;103086.47;696398;28;23439;-65
2022/03/22 00:12:56;;;;;;;338.65;318.00;;;;;;;8.25;34.01;103086.38;694971;28;69395;-65
2022/03/22 00:13:17;;;;;;;349.00;327.88;;;;;;;8.25;34.06;103099.84;695618;28;46333;-65
2022/03/22 00:13:38;;;;;;;324.23;306.08;;;;;;;8.23;33.95;103089.16;696708;28;23731;-65
2022/03/22 00:13:59;;;;;;;326.73;308.50;;;;;;;8.22;33.97;103100.91;695597;28;46388;-65
2022/03/22 00:14:21;;;;;;;339.88;320.27;;;;;;;8.22;33.96;103097.34;696397;28;23497;-65
2022/03/22 00:14:44;;;;;;;352.23;331.25;;;;;;;8.20;34.04;103092.06;695763;28;45079;-65
2022/03/22 00:15:06;;;;;;;335.50;315.45;;;;;;;8.18;34.08;103091.31;694682;28;69309;-65
2022/03/22 00:15:27;;;;;;;329.73;310.27;;;;;;;8.18;34.09;103095.81;696532;28;21465;-65
2022/03/22 00:15:50;;;;;;;338.80;318.40;;;;;;;8.15;34.28;103094.22;696028;28;45222;-65
2022/03/22 00:16:12;;;;;;;309.85;293.00;;;;;;;8.15;34.14;103093.34;694683;28;69442;-65
2022/03/22 00:16:33;;;;;;;300.77;284.67;;;;;;;8.11;34.29;103096.22;695784;28;21544;-65
2022/03/22 00:16:54;;;;;;;253.85;238.90;;;;;;;8.11;34.34;103088.16;696842;28;23459;-65
2022/03/22 00:17:15;;;;;;;257.85;242.40;;;;;;;8.12;34.46;103095.28;696551;28;22373;-66
2022/03/22 00:17:37;;;;;;;270.98;256.27;;;;;;;8.11;34.50;103095.38;696907;28;21384;-66
2022/03/22 00:17:59;;;;;;;287.95;272.90;;;;;;;8.10;34.65;103101.72;695271;28;67227;-66
2022/03/22 00:18:20;;;;;;;289.55;274.50;;;;;;;8.07;34.58;103097.41;696762;28;22426;-65
2022/03/22 00:18:41;;;;;;;313.58;296.33;;;;;;;8.06;34.51;103093.00;696838;28;23426;-65
2022/03/22 00:19:03;;;;;;;337.08;318.17;;;;;;;8.06;34.44;103101.06;696788;28;22371;-65
2022/03/22 00:19:24;;;;;;;330.02;311.92;;;;;;;8.05;34.46;103098.47;695901;28;45263;-66
2022/03/22 00:19:45;;;;;;;296.10;279.45;;;;;;;8.03;34.65;103098.59;696090;28;22496;-65
2022/03/22 00:20:10;;;;;;;250.75;235.77;;;;;;;8.04;34.49;103089.56;697369;28;1134;-65
2022/03/22 00:20:32;;;;;;;261.40;246.25;;;;;;;8.03;34.37;103098.59;693688;28;115112;-65
2022/03/22 00:20:54;;;;;;;245.15;232.80;;;;;;;8.02;34.62;103094.16;694548;28;69448;-65
2022/03/22 00:21:17;;;;;;;246.73;234.57;;;;;;;8.02;34.72;103094.16;693236;28;22340;-66
2022/03/22 00:21:39;;;;;;;333.02;313.92;;;;;;;8.02;34.75;103096.84;690276;28;92241;-64
2022/03/22 00:22:02;;;;;;;334.15;315.35;;;;;;;8.02;34.56;103096.84;695313;28;22366;-65
2022/03/22 00:22:24;;;;;;;316.58;299.60;;;;;;;8.03;34.76;103097.72;694889;28;70185;-65
2022/03/22 00:22:45;;;;;;;288.48;274.08;;;;;;;8.01;34.72;103096.94;695441;28;46305;-65
2022/03/22 00:23:06;;;;;;;297.08;282.17;;;;;;;7.99;34.88;103098.88;699308;28;20832;-65
2022/03/22 00:23:28;;;;;;;256.88;243.93;;;;;;;7.97;34.81;103095.44;701276;28;22193;-65
2022/03/22 00:23:49;;;;;;;179.43;170.18;;;;;;;7.97;34.84;103098.13;701469;28;45366;-65
2022/03/22 00:24:10;;;;;;;208.70;197.45;;;;;;;7.97;34.91;103092.75;702119;28;23370;-65
2022/03/22 00:24:31;;;;;;;238.70;225.98;;;;;;;7.97;34.84;103106.22;701563;28;23461;-65
2022/03/22 00:24:53;;;;;;;229.32;217.18;;;;;;;7.98;34.64;103095.34;700223;28;22649;-65
2022/03/22 00:25:16;;;;;;;261.40;246.10;;;;;;;7.99;34.60;103097.03;695773;28;45238;-65
2022/03/22 00:25:37;;;;;;;270.63;254.98;;;;;;;7.98;34.54;103100.72;695384;28;59204;-65
2022/03/22 00:25:59;;;;;;;284.23;267.77;;;;;;;7.97;34.59;103098.13;696286;28;21509;-65
2022/03/22 00:26:20;;;;;;;282.98;266.40;;;;;;;8.00;34.49;103092.56;695533;28;46328;-65
2022/03/22 00:26:42;;;;;;;277.10;260.73;;;;;;;8.02;34.44;103096.84;696219;28;21264;-65
2022/03/22 00:27:04;;;;;;;286.00;269.13;;;;;;;8.02;34.41;103090.59;693956;28;67341;-65
2022/03/22 00:27:26;;;;;;;301.90;283.38;;;;;;;8.01;34.64;103094.25;696687;28;23470;-65
2022/03/22 00:27:55;;;;;;;299.48;281.33;;;;;;;8.00;34.49;103098.78;692611;28;69476;-65
2022/03/22 00:28:16;;;;;;;272.83;257.38;;;;;;;7.99;34.58;103098.88;692409;28;137635;-66
2022/03/22 00:28:38;;;;;;;269.65;254.35;;;;;;;7.97;34.54;103090.91;696648;28;21505;-65
2022/03/22 00:29:00;;;;;;;270.08;255.15;;;;;;;7.96;34.83;103093.72;695340;28;45259;-65
2022/03/22 00:29:23;;;;;;;262.48;248.40;;;;;;;7.92;34.88;103093.06;692593;28;91935;-65
2022/03/22 00:29:44;;;;;;;250.98;237.90;;;;;;;7.93;34.91;103102.84;696316;28;21546;-65
2022/03/22 00:30:07;;;;;;;245.75;232.88;;;;;;;7.90;35.10;103097.69;696123;28;21062;-66
2022/03/22 00:30:31;;;;;;;238.18;226.02;;;;;;;7.86;35.06;103097.00;695039;28;69482;-65
2022/03/22 00:30:52;;;;;;;254.52;240.85;;;;;;;7.81;35.08;103091.06;694169;28;92650;-65
2022/03/22 00:31:15;;;;;;;265.00;250.45;;;;;;;7.81;35.23;103093.75;696525;28;21533;-65
2022/03/22 00:31:37;;;;;;;237.05;224.82;;;;;;;7.80;35.19;103092.03;693962;28;67598;-65
2022/03/22 00:31:58;;;;;;;240.82;228.90;;;;;;;7.78;35.13;103093.97;695719;28;46493;-65
2022/03/22 00:32:19;;;;;;;254.40;240.80;;;;;;;7.76;35.17;103087.84;696429;28;22255;-65
2022/03/22 00:32:40;;;;;;;213.20;202.45;;;;;;;7.75;35.47;103092.31;696878;28;23438;-65
2022/03/22 00:33:05;;;;;;;221.93;211.05;;;;;;;7.73;35.25;103102.34;696625;28;22405;-65
2022/03/22 00:33:26;;;;;;;253.90;240.65;;;;;;;7.75;34.92;103091.47;693429;28;114760;-66
2022/03/22 00:33:47;;;;;;;246.30;233.88;;;;;;;7.77;34.97;103097.59;696874;28;22367;-65
2022/03/22 00:34:10;;;;;;;204.43;194.65;;;;;;;7.73;35.29;103094.25;696648;28;21710;-65
2022/03/22 00:34:32;;;;;;;216.13;205.80;;;;;;;7.73;35.76;103093.41;696155;28;46396;-65
2022/03/22 00:34:53;;;;;;;235.10;223.75;;;;;;;7.74;35.26;103093.31;696121;28;46438;-65
2022/03/22 00:35:17;;;;;;;208.23;198.57;;;;;;;7.76;35.03;103095.91;696565;28;21528;-65
2022/03/22 00:35:39;;;;;;;181.90;173.75;;;;;;;7.73;35.41;103096.97;693383;28;115135;-65
2022/03/22 00:36:01;;;;;;;203.25;194.07;;;;;;;7.72;35.50;103094.38;695660;28;45754;-66
2022/03/22 00:36:23;;;;;;;211.93;202.35;;;;;;;7.70;35.79;103093.63;696024;28;46691;-65
2022/03/22 00:36:45;;;;;;;222.23;212.13;;;;;;;7.71;35.74;103098.00;696115;28;22395;-65
2022/03/22 00:37:06;;;;;;;240.98;229.85;;;;;;;7.70;35.63;103088.22;695515;28;45302;-65
2022/03/22 00:37:29;;;;;;;241.65;230.43;;;;;;;7.71;35.70;103098.00;695506;28;44398;-65
2022/03/22 00:37:51;;;;;;;258.33;246.02;;;;;;;7.68;35.69;103085.66;695274;28;69452;-65
2022/03/22 00:38:16;;;;;;;271.95;258.60;;;;;;;7.72;35.92;103097.06;696672;28;22370;-65
2022/03/22 00:38:37;;;;;;;226.77;214.18;;;;;;;7.72;35.94;103092.53;693750;28;101917;-65
2022/03/22 00:38:59;;;;;;;219.25;207.05;;;;;;;7.73;35.89;103096.09;696830;28;22313;-65
2022/03/22 00:39:20;;;;;;;166.48;158.40;;;;;;;7.72;35.79;103097.06;695296;28;44229;-65
2022/03/22 00:39:42;;;;;;;193.50;184.43;;;;;;;7.72;36.15;103088.97;695776;28;22300;-65
2022/03/22 00:40:07;;;;;;;187.25;178.65;;;;;;;7.71;36.18;103093.50;695662;28;44396;-65
2022/03/22 00:40:28;;;;;;;167.43;160.00;;;;;;;7.71;36.20;103096.19;693773;28;92193;-65
2022/03/22 00:40:50;;;;;;;195.52;186.63;;;;;;;7.71;36.14;103095.31;696026;28;46287;-65
2022/03/22 00:41:13;;;;;;;209.82;200.30;;;;;;;7.72;36.15;103097.91;695772;28;46918;-65
2022/03/22 00:41:34;;;;;;;229.50;218.93;;;;;;;7.72;36.02;103091.69;694400;28;66973;-65
2022/03/22 00:41:57;;;;;;;236.38;225.48;;;;;;;7.70;36.07;103093.63;696767;28;24424;-66
2022/03/22 00:42:19;;;;;;;225.43;214.68;;;;;;;7.68;36.31;103091.03;694261;28;67490;-65
2022/03/22 00:42:41;;;;;;;193.63;183.05;;;;;;;7.66;36.20;103089.38;696695;28;21499;-65
2022/03/22 00:43:02;;;;;;;187.85;177.93;;;;;;;7.64;36.42;103088.63;696154;28;46251;-65
2022/03/22 00:43:24;;;;;;;178.93;169.90;;;;;;;7.65;36.26;103084.97;696579;28;22415;-66
2022/03/22 00:43:45;;;;;;;207.00;196.00;;;;;;;7.65;36.38;103087.66;695515;28;45351;-65
2022/03/22 00:44:08;;;;;;;223.60;211.13;;;;;;;7.64;36.68;103094.00;696489;28;22393;-66
2022/03/22 00:44:29;;;;;;;185.15;176.05;;;;;;;7.63;36.32;103095.81;694230;28;93216;-65
2022/03/22 00:44:51;;;;;;;152.90;146.30;;;;;;;7.63;36.31;103095.81;696984;28;22392;-65
2022/03/22 00:45:13;;;;;;;202.77;193.70;;;;;;;7.64;36.24;103083.25;696634;28;20950;-65
2022/03/22 00:45:36;;;;;;;210.18;200.77;;;;;;;7.63;36.26;103090.44;694855;28;70638;-65
2022/03/22 00:45:57;;;;;;;212.90;203.40;;;;;;;7.63;36.30;103089.59;695389;28;46310;-65
2022/03/22 00:46:18;;;;;;;241.85;230.77;;;;;;;7.62;35.90;103091.41;696434;28;23212;-65
2022/03/22 00:46:39;;;;;;;220.02;209.10;;;;;;;7.60;35.86;103084.41;696050;28;23450;-65
2022/03/22 00:47:00;;;;;;;175.02;165.93;;;;;;;7.58;36.06;103089.88;695704;28;44371;-65
2022/03/22 00:47:23;;;;;;;176.95;167.75;;;;;;;7.57;36.14;103090.88;696566;28;22387;-65
2022/03/22 00:47:45;;;;;;;166.82;158.52;;;;;;;7.52;36.09;103083.09;695924;28;44395;-65
2022/03/22 00:48:13;;;;;;;192.13;181.98;;;;;;;7.53;36.23;103090.19;695783;28;44092;-66
2022/03/22 00:48:35;;;;;;;215.30;203.57;;;;;;;7.53;36.18;103090.19;689914;28;138133;-65
2022/03/22 00:48:58;;;;;;;199.98;189.43;;;;;;;7.52;36.29;103084.91;692908;28;46442;-65
2022/03/22 00:49:19;;;;;;;198.82;188.45;;;;;;;7.49;36.25;103079.72;691758;28;92287;-65
2022/03/22 00:49:40;;;;;;;207.45;196.50;;;;;;;7.49;36.13;103085.97;692412;28;46347;-66
2022/03/22 00:50:02;;;;;;;199.77;189.40;;;;;;;7.50;36.11;103090.38;693802;28;23511;-65
2022/03/22 00:50:27;;;;;;;195.82;185.73;;;;;;;7.48;36.20;103078.88;695249;28;22397;-65
2022/03/22 00:50:48;;;;;;;207.07;196.85;;;;;;;7.48;36.35;103083.41;693608;28;113560;-65
2022/03/22 00:51:10;;;;;;;205.63;195.75;;;;;;;7.46;36.42;103082.59;696050;28;22396;-65
2022/03/22 00:51:31;;;;;;;174.88;165.85;;;;;;;7.44;36.25;103087.22;694437;28;45213;-65
2022/03/22 00:51:53;;;;;;;166.57;158.10;;;;;;;7.46;36.47;103087.97;696606;28;23430;-65
2022/03/22 00:52:14;;;;;;;172.95;164.10;;;;;;;7.42;36.59;103090.03;694723;28;44405;-65
2022/03/22 00:52:35;;;;;;;167.45;159.02;;;;;;;7.42;36.50;103092.72;696434;28;23468;-65
2022/03/22 00:52:58;;;;;;;185.77;175.97;;;;;;;7.41;36.58;103085.59;696500;28;23415;-65
2022/03/22 00:53:20;;;;;;;196.95;186.40;;;;;;;7.45;36.59;103089.81;694213;28;92294;-66
2022/03/22 00:53:41;;;;;;;186.95;177.13;;;;;;;7.45;36.62;103084.44;696063;28;46331;-65
2022/03/22 00:54:03;;;;;;;200.50;189.77;;;;;;;7.43;36.58;103089.06;696911;28;22395;-65
2022/03/22 00:54:24;;;;;;;206.75;195.65;;;;;;;7.40;36.65;103084.75;695513;28;44563;-65
2022/03/22 00:54:46;;;;;;;181.18;171.93;;;;;;;7.43;36.43;103086.38;695635;28;45438;-66
2022/03/22 00:55:08;;;;;;;213.60;201.82;;;;;;;7.39;36.50;103093.75;696112;28;24245;-65
2022/03/22 00:55:30;;;;;;;216.98;204.88;;;;;;;7.39;36.54;103085.69;695952;28;44277;-65
2022/03/22 00:55:51;;;;;;;212.05;200.45;;;;;;;7.38;36.68;103091.16;695274;28;46293;-65
2022/03/22 00:56:12;;;;;;;204.45;193.48;;;;;;;7.37;36.87;103090.31;696804;28;22414;-65
2022/03/22 00:56:33;;;;;;;185.30;175.55;;;;;;;7.38;36.55;103088.47;695691;28;21547;-65
2022/03/22 00:56:58;;;;;;;187.63;177.77;;;;;;;7.40;36.47;103094.63;695517;28;47368;-65
2022/03/22 00:57:19;;;;;;;171.93;163.27;;;;;;;7.38;36.68;103092.06;694143;28;92108;-65
2022/03/22 00:57:41;;;;;;;165.43;157.23;;;;;;;7.38;36.64;103089.34;696514;28;22403;-65
2022/03/22 00:58:03;;;;;;;207.55;196.02;;;;;;;7.37;36.58;103084.09;695915;28;45275;-66
2022/03/22 00:58:28;;;;;;;212.37;200.33;;;;;;;7.32;36.52;103084.38;697182;28;14914;-65
2022/03/22 01:00:01;;;;;;;199.07;188.13;;;;;;;7.30;36.71;103093.47;694670;28;70270;-65
2022/03/22 01:00:12;;;;;;;169.93;161.15;;;;;;;7.27;36.53;103086.47;688784;28;135979;-65
2022/03/22 01:00:34;;;;;;;189.57;179.23;;;;;;;7.22;36.55;103085.91;691881;28;67528;-65
2022/03/22 01:00:56;;;;;;;202.95;191.50;;;;;;;7.24;36.58;103085.81;691447;28;43728;-65
2022/03/22 01:01:17;;;;;;;195.75;185.00;;;;;;;7.22;36.60;103093.97;691532;28;46296;-65
2022/03/22 01:01:38;;;;;;;198.55;187.48;;;;;;;7.18;36.56;103085.25;691666;28;23837;-65
2022/03/22 01:02:00;;;;;;;181.73;171.82;;;;;;;7.19;36.72;103092.38;693683;28;23490;-65
2022/03/22 01:02:21;;;;;;;190.93;180.50;;;;;;;7.19;36.62;103086.09;696681;28;22327;-65
2022/03/22 01:02:45;;;;;;;203.50;192.05;;;;;;;7.15;36.70;103087.28;695007;28;47331;-65
2022/03/22 01:03:07;;;;;;;184.93;174.98;;;;;;;7.14;36.71;103094.44;694973;28;67287;-66
2022/03/22 01:03:28;;;;;;;192.35;181.45;;;;;;;7.13;36.80;103090.06;694780;28;67523;-65
2022/03/22 01:03:50;;;;;;;242.57;227.15;;;;;;;7.11;36.86;103085.72;696329;28;22428;-65
2022/03/22 01:04:12;;;;;;;260.20;240.70;;;;;;;7.11;36.94;103085.72;695960;28;45235;-65
2022/03/22 01:04:35;;;;;;;215.43;201.70;;;;;;;7.10;37.04;103084.00;695923;28;44151;-65
2022/03/22 01:04:56;;;;;;;160.98;152.85;;;;;;;7.08;37.16;103091.28;694897;28;69700;-65
2022/03/22 01:05:19;;;;;;;128.40;122.45;;;;;;;7.06;37.22;103094.09;695878;28;44302;-65
2022/03/22 01:05:42;;;;;;;111.05;106.03;;;;;;;7.04;36.98;103086.13;695335;28;69428;-65
2022/03/22 01:06:04;;;;;;;107.78;102.97;;;;;;;7.03;37.08;103084.38;695876;28;46318;-65
2022/03/22 01:06:25;;;;;;;116.28;111.05;;;;;;;7.02;37.09;103090.72;695056;28;69249;-65
2022/03/22 01:06:46;;;;;;;123.03;117.53;;;;;;;7.01;37.08;103085.44;695600;28;23616;-66
2022/03/22 01:07:08;;;;;;;129.65;123.68;;;;;;;6.98;37.25;103078.44;696826;28;22151;-65
2022/03/22 01:07:29;;;;;;;148.60;141.43;;;;;;;6.97;37.17;103079.38;695510;28;46469;-65
2022/03/22 01:07:52;;;;;;;129.25;123.22;;;;;;;6.93;37.25;103082.34;696736;28;21530;-65
2022/03/22 01:08:14;;;;;;;114.35;109.25;;;;;;;6.95;37.26;103078.63;695029;28;69185;-65
2022/03/22 01:08:37;;;;;;;131.02;124.90;;;;;;;6.97;37.41;103089.28;694728;28;69416;-65
2022/03/22 01:08:58;;;;;;;143.95;137.10;;;;;;;6.97;37.24;103079.38;696359;28;21542;-65
2022/03/22 01:09:19;;;;;;;137.38;131.00;;;;;;;6.99;37.31;103087.34;696545;28;22385;-66
2022/03/22 01:09:40;;;;;;;140.68;133.93;;;;;;;6.95;37.27;103078.63;695781;28;21542;-66
2022/03/22 01:10:05;;;;;;;148.37;141.17;;;;;;;6.97;37.34;103083.91;695181;28;46334;-66
2022/03/22 01:10:28;;;;;;;143.38;136.63;;;;;;;6.96;37.68;103082.16;692719;28;138546;-65
2022/03/22 01:10:52;;;;;;;160.63;152.63;;;;;;;6.94;37.40;103079.56;694702;28;67481;-66
2022/03/22 01:11:15;;;;;;;155.00;147.32;;;;;;;6.93;37.58;103076.97;693787;28;92545;-65
2022/03/22 01:11:36;;;;;;;151.68;144.32;;;;;;;6.91;37.51;103081.59;694023;28;45509;-66
2022/03/22 01:11:59;;;;;;;145.43;138.45;;;;;;;6.92;37.25;103077.97;694947;28;44138;-65
2022/03/22 01:12:21;;;;;;;153.63;146.05;;;;;;;6.92;37.46;103084.19;695597;28;46363;-65
2022/03/22 01:12:44;;;;;;;174.68;165.55;;;;;;;6.92;37.40;103073.44;695738;28;44404;-64
2022/03/22 01:13:07;;;;;;;164.27;155.98;;;;;;;6.91;37.62;103076.22;694489;28;69255;-66
2022/03/22 01:13:28;;;;;;;167.02;158.48;;;;;;;6.88;37.64;103079.09;693880;28;92362;-66
2022/03/22 01:13:49;;;;;;;142.80;135.98;;;;;;;6.87;38.16;103074.72;695520;28;46368;-66
2022/03/22 01:14:11;;;;;;;106.40;101.68;;;;;;;6.86;38.02;103073.81;696309;28;22491;-65
2022/03/22 01:14:33;;;;;;;121.50;115.97;;;;;;;6.85;38.01;103072.97;696784;28;21998;-65
2022/03/22 01:14:55;;;;;;;135.73;129.43;;;;;;;6.85;38.00;103080.19;696154;28;46366;-65
2022/03/22 01:15:18;;;;;;;152.38;144.85;;;;;;;6.84;38.09;103075.75;694149;28;69531;-65
2022/03/22 01:15:42;;;;;;;170.77;161.88;;;;;;;6.82;38.08;103070.47;695477;28;66864;-66
2022/03/22 01:16:04;;;;;;;155.52;147.63;;;;;;;6.85;38.14;103082.88;694339;28;92116;-66
2022/03/22 01:16:25;;;;;;;172.98;164.02;;;;;;;6.83;38.24;103074.00;696762;28;23463;-65
2022/03/22 01:16:46;;;;;;;155.68;147.93;;;;;;;6.84;38.29;103075.75;695810;28;18347;-63
2022/03/22 01:17:08;;;;;;;147.95;140.80;;;;;;;6.84;38.41;103078.44;696067;28;21511;-65
2022/03/22 01:17:31;;;;;;;156.60;148.82;;;;;;;6.83;38.01;103071.31;695435;28;46330;-65
2022/03/22 01:17:54;;;;;;;162.45;154.32;;;;;;;6.82;38.19;103073.16;694650;28;69994;-65
2022/03/22 01:18:16;;;;;;;173.55;164.52;;;;;;;6.82;38.16;103067.78;694967;28;70364;-64
2022/03/22 01:18:37;;;;;;;169.55;160.80;;;;;;;6.81;38.33;103074.09;695505;28;44184;-65
2022/03/22 01:18:58;;;;;;;165.90;157.45;;;;;;;6.80;38.37;103074.19;696253;28;23458;-64
2022/03/22 01:19:21;;;;;;;179.65;170.05;;;;;;;6.79;38.76;103073.34;695341;28;59275;-66
2022/03/22 01:19:42;;;;;;;174.98;165.63;;;;;;;6.79;38.61;103076.03;695969;28;23744;-65
2022/03/22 01:20:10;;;;;;;167.82;159.10;;;;;;;6.78;38.53;103068.94;696668;28;22393;-65
2022/03/22 01:20:33;;;;;;;196.80;185.98;;;;;;;6.79;38.57;103067.13;692357;28;138069;-65
2022/03/22 01:20:55;;;;;;;171.02;162.27;;;;;;;6.80;38.67;103068.84;695125;28;68457;-65
2022/03/22 01:21:16;;;;;;;153.30;145.82;;;;;;;6.81;38.44;103070.56;695888;28;46443;-65
2022/03/22 01:21:38;;;;;;;139.95;133.35;;;;;;;6.79;38.41;103065.28;695366;28;23481;-65
2022/03/22 01:21:59;;;;;;;143.40;136.50;;;;;;;6.80;38.41;103074.19;696788;28;46198;-66
2022/03/22 01:22:22;;;;;;;182.10;172.35;;;;;;;6.80;38.33;103071.53;700182;28;1758;-65
2022/03/22 01:22:44;;;;;;;179.70;170.15;;;;;;;6.80;38.26;103071.53;698844;28;22385;-65
2022/03/22 01:23:08;;;;;;;173.77;164.67;;;;;;;6.81;38.37;103070.56;697381;28;67492;-65
2022/03/22 01:23:29;;;;;;;184.80;174.75;;;;;;;6.82;38.40;103069.63;696360;28;90814;-66
2022/03/22 01:23:52;;;;;;;186.95;176.80;;;;;;;6.80;38.20;103063.47;697336;28;44433;-66
2022/03/22 01:24:13;;;;;;;176.10;166.70;;;;;;;6.80;38.19;103074.19;695343;28;44446;-66
2022/03/22 01:24:35;;;;;;;177.65;168.10;;;;;;;6.81;38.32;103070.56;696491;28;22399;-66
2022/03/22 01:24:56;;;;;;;177.45;167.98;;;;;;;6.82;38.16;103069.63;696165;28;46259;-65
2022/03/22 01:25:21;;;;;;;147.98;140.85;;;;;;;6.79;38.34;103062.59;697021;28;1580;-65
2022/03/22 01:25:43;;;;;;;143.40;136.55;;;;;;;6.79;38.18;103070.66;693392;28;113550;-65
2022/03/22 01:26:06;;;;;;;146.38;139.40;;;;;;;6.80;38.28;103064.34;695468;28;46291;-66
2022/03/22 01:26:27;;;;;;;143.02;136.23;;;;;;;6.79;38.23;103067.13;694842;28;69831;-65
2022/03/22 01:26:48;;;;;;;113.32;108.13;;;;;;;6.78;38.17;103063.56;695750;28;22409;-66
2022/03/22 01:27:10;;;;;;;125.35;119.45;;;;;;;6.79;38.15;103070.66;696490;28;22396;-65
2022/03/22 01:27:32;;;;;;;136.25;129.82;;;;;;;6.80;38.10;103064.34;695184;28;44384;-65
2022/03/22 01:27:54;;;;;;;139.40;132.85;;;;;;;6.78;38.02;103058.19;695095;28;46309;-65
2022/03/22 01:28:16;;;;;;;141.02;134.32;;;;;;;6.78;38.04;103062.69;695772;28;44527;-65
2022/03/22 01:28:38;;;;;;;147.13;139.98;;;;;;;6.75;38.06;103066.44;696119;28;46394;-65
2022/03/22 01:28:59;;;;;;;142.60;135.88;;;;;;;6.74;37.95;103062.03;695451;28;45254;-66
2022/03/22 01:29:20;;;;;;;126.57;120.75;;;;;;;6.75;37.82;103066.44;696450;28;21517;-65
2022/03/22 01:29:41;;;;;;;127.22;121.35;;;;;;;6.73;37.89;103062.97;695949;28;22408;-65
2022/03/22 01:30:05;;;;;;;111.05;106.03;;;;;;;6.73;37.97;103057.63;696217;28;22459;-65
2022/03/22 01:30:26;;;;;;;95.25;91.07;;;;;;;6.72;37.89;103058.56;693982;28;92311;-64
2022/03/22 01:30:48;;;;;;;76.60;73.30;;;;;;;6.72;37.98;103069.31;696186;28;22387;-65
2022/03/22 01:31:10;;;;;;;81.70;78.03;;;;;;;6.71;37.88;103056.84;695125;28;69288;-65
2022/03/22 01:31:31;;;;;;;156.32;148.43;;;;;;;6.71;37.78;103054.16;694097;28;45350;-65
2022/03/22 01:31:53;;;;;;;177.55;168.23;;;;;;;6.72;37.77;103060.41;696085;28;23481;-65
2022/03/22 01:32:14;;;;;;;167.10;158.60;;;;;;;6.72;37.84;103069.31;695301;28;45246;-66
2022/03/22 01:32:36;;;;;;;148.25;141.25;;;;;;;6.71;37.69;103059.53;696246;28;21528;-64
2022/03/22 01:32:57;;;;;;;137.60;131.13;;;;;;;6.72;37.82;103063.94;695293;28;46386;-66
2022/03/22 01:33:19;;;;;;;160.90;152.82;;;;;;;6.73;37.84;103060.28;696296;28;22665;-66
2022/03/22 01:33:40;;;;;;;150.93;143.88;;;;;;;6.73;37.70;103065.66;695309;28;46652;-65
2022/03/22 01:34:03;;;;;;;152.73;145.75;;;;;;;6.72;37.78;103063.06;695615;28;22191;-66
2022/03/22 01:34:24;;;;;;;136.93;130.85;;;;;;;6.70;37.68;103060.50;694975;28;69283;-66
2022/03/22 01:34:46;;;;;;;153.77;146.65;;;;;;;6.70;37.71;103059.63;696616;28;22385;-65
2022/03/22 01:35:10;;;;;;;178.13;169.43;;;;;;;6.70;37.75;103057.81;695412;28;46385;-65
2022/03/22 01:35:31;;;;;;;176.73;168.20;;;;;;;6.70;37.75;103060.50;696628;28;92288;-65
2022/03/22 01:35:52;;;;;;;163.23;155.57;;;;;;;6.70;37.82;103057.81;699408;28;23455;-66
2022/03/22 01:36:13;;;;;;;189.80;181.02;;;;;;;6.68;37.69;103057.91;698992;28;23396;-65
2022/03/22 01:36:35;;;;;;;194.00;185.00;;;;;;;6.69;37.84;103058.75;698334;28;22423;-66
2022/03/22 01:36:56;;;;;;;181.38;173.10;;;;;;;6.67;37.75;103058.84;698328;28;44412;-66
2022/03/22 01:37:17;;;;;;;178.02;170.02;;;;;;;6.68;37.63;103055.22;698604;28;21513;-66
2022/03/22 01:37:39;;;;;;;190.70;182.13;;;;;;;6.71;37.74;103055.97;696701;28;22394;-65
2022/03/22 01:38:01;;;;;;;193.80;185.02;;;;;;;6.69;37.69;103056.06;695650;28;47504;-65
2022/03/22 01:38:23;;;;;;;178.27;170.27;;;;;;;6.70;37.68;103056.94;700770;28;26483;-65
2022/03/22 01:38:44;;;;;;;175.75;168.00;;;;;;;6.70;37.71;103056.94;701553;28;21508;-66
2022/03/22 01:39:06;;;;;;;194.05;185.27;;;;;;;6.68;37.80;103057.91;699902;28;44345;-64
2022/03/22 01:39:28;;;;;;;181.68;173.60;;;;;;;6.68;37.60;103054.34;700444;28;45249;-65
2022/03/22 01:39:49;;;;;;;158.25;151.38;;;;;;;6.69;37.55;103056.06;700901;28;46223;-65
2022/03/22 01:40:11;;;;;;;145.27;138.98;;;;;;;6.71;37.56;103064.03;700493;28;22427;-65
2022/03/22 01:40:32;;;;;;;145.55;138.38;;;;;;;6.71;37.72;103050.59;695508;28;44457;-66
2022/03/22 01:40:54;;;;;;;147.00;139.70;;;;;;;6.71;37.58;103056.84;696255;28;22413;-65